Time,TemperatureF,DewpointF,PressureIn,WindDirection,WindDirectionDegrees,WindSpeedMPH,WindSpeedGustMPH,Humidity,HourlyPrecipIn,Conditions,Clouds,dailyrainin,SoftwareType,DateUTC
2013-05-19 00:02:00,67.0,63.0,29.93,SSE,160,0.0,2.0,86,0.00,,,0.00,,2013-05-19 05:02:00,
2013-05-19 00:42:00,66.0,63.0,29.94,SSE,160,0.0,2.0,89,0.00,,,0.00,,2013-05-19 05:42:00,
2013-05-19 00:52:00,66.0,63.0,29.94,SSE,160,0.0,2.0,89,0.00,,,0.00,,2013-05-19 05:52:00,
2013-05-19 01:02:00,66.0,63.0,29.94,SSE,160,0.0,2.0,89,0.00,,,0.00,,2013-05-19 06:02:00,
2013-05-19 01:12:00,66.0,63.0,29.94,SSE,160,0.0,2.0,89,0.00,,,0.00,,2013-05-19 06:12:00,
2013-05-19 01:21:00,66.0,63.0,29.94,SSE,160,0.0,2.0,89,0.00,,,0.00,,2013-05-19 06:21:00,
2013-05-19 01:32:00,66.0,63.0,29.94,SSE,160,0.0,2.0,89,0.00,,,0.00,,2013-05-19 06:32:00,
2013-05-19 02:52:00,64.0,61.0,29.93,SSE,160,0.0,4.0,91,0.00,,,0.00,,2013-05-19 07:52:00,
2013-05-19 03:02:00,64.0,61.0,29.93,SSE,160,0.0,4.0,91,0.00,,,0.00,,2013-05-19 08:02:00,
2013-05-19 03:12:00,64.0,61.0,29.93,SSE,160,0.0,4.0,91,0.00,,,0.00,,2013-05-19 08:12:00,
2013-05-19 03:22:00,63.0,60.0,29.93,SSE,160,0.0,1.0,91,0.00,,,0.00,,2013-05-19 08:22:00,
2013-05-19 03:32:00,63.0,60.0,29.93,SSE,160,0.0,1.0,91,0.00,,,0.00,,2013-05-19 08:32:00,
2013-05-19 03:42:00,63.0,60.0,29.93,SSE,160,0.0,1.0,91,0.00,,,0.00,,2013-05-19 08:42:00,
2013-05-19 03:52:00,63.0,60.0,29.93,SSE,160,0.0,1.0,91,0.00,,,0.00,,2013-05-19 08:52:00,
2013-05-19 04:02:00,63.0,60.0,29.93,SSE,160,0.0,1.0,91,0.00,,,0.00,,2013-05-19 09:02:00,
2013-05-19 04:21:00,63.0,61.0,29.93,SSE,160,1.0,3.0,92,0.00,,,0.00,,2013-05-19 09:21:00,
2013-05-19 04:33:00,63.0,61.0,29.93,SSE,160,1.0,3.0,92,0.00,,,0.00,,2013-05-19 09:33:00,
2013-05-19 04:43:00,63.0,61.0,29.93,SSE,160,1.0,3.0,92,0.00,,,0.00,,2013-05-19 09:43:00,
2013-05-19 04:53:00,63.0,61.0,29.93,SSE,160,2.0,4.0,93,0.00,,,0.00,,2013-05-19 09:53:00,
2013-05-19 05:02:00,63.0,61.0,29.93,SSE,160,2.0,4.0,93,0.00,,,0.00,,2013-05-19 10:02:00,
2013-05-19 05:12:00,63.0,61.0,29.93,SSE,160,2.0,4.0,93,0.00,,,0.00,,2013-05-19 10:12:00,
2013-05-19 05:22:00,63.0,61.0,29.93,SSE,160,2.0,4.0,93,0.00,,,0.00,,2013-05-19 10:22:00,
2013-05-19 05:32:00,63.0,61.0,29.93,SSE,160,2.0,4.0,93,0.00,,,0.00,,2013-05-19 10:32:00,
2013-05-19 05:53:00,62.0,60.0,29.94,SSE,160,0.0,1.0,93,0.00,,,0.00,,2013-05-19 10:53:00,
2013-05-19 06:02:00,62.0,60.0,29.94,SSE,160,0.0,1.0,93,0.00,,,0.00,,2013-05-19 11:02:00,
2013-05-19 06:12:00,62.0,60.0,29.94,SSE,160,0.0,1.0,93,0.00,,,0.00,,2013-05-19 11:12:00,
2013-05-19 06:21:00,63.0,61.0,29.94,SSE,160,1.0,4.0,93,0.00,,,0.00,,2013-05-19 11:21:00,
2013-05-19 06:32:00,63.0,61.0,29.94,SSE,160,1.0,4.0,93,0.00,,,0.00,,2013-05-19 11:32:00,
2013-05-19 06:42:00,63.0,61.0,29.94,SSE,160,1.0,4.0,93,0.00,,,0.00,,2013-05-19 11:42:00,
2013-05-19 06:52:00,63.0,61.0,29.94,SSE,160,1.0,4.0,93,0.00,,,0.00,,2013-05-19 11:52:00,
2013-05-19 07:01:00,63.0,61.0,29.94,SSE,160,1.0,4.0,93,0.00,,,0.00,,2013-05-19 12:01:00,
2013-05-19 08:21:00,69.0,65.0,29.93,ESE,116,4.0,8.0,87,0.00,,,0.00,,2013-05-19 13:21:00,
2013-05-19 08:32:00,69.0,65.0,29.93,ESE,116,4.0,8.0,87,0.00,,,0.00,,2013-05-19 13:32:00,
2013-05-19 08:42:00,69.0,65.0,29.93,ESE,116,4.0,8.0,87,0.00,,,0.00,,2013-05-19 13:42:00,
2013-05-19 08:52:00,69.0,65.0,29.93,ESE,116,4.0,8.0,87,0.00,,,0.00,,2013-05-19 13:52:00,
2013-05-19 09:02:00,69.0,65.0,29.93,ESE,116,4.0,8.0,87,0.00,,,0.00,,2013-05-19 14:02:00,
2013-05-19 09:21:00,74.0,67.0,29.92,ESE,117,6.0,11.0,79,0.00,,,0.00,,2013-05-19 14:21:00,
2013-05-19 09:32:00,74.0,67.0,29.92,ESE,117,6.0,11.0,79,0.00,,,0.00,,2013-05-19 14:32:00,
2013-05-19 09:42:00,74.0,67.0,29.92,ESE,117,6.0,11.0,79,0.00,,,0.00,,2013-05-19 14:42:00,
2013-05-19 09:52:00,74.0,67.0,29.92,ESE,117,6.0,11.0,79,0.00,,,0.00,,2013-05-19 14:52:00,
2013-05-19 10:01:00,74.0,67.0,29.92,ESE,117,6.0,11.0,79,0.00,,,0.00,,2013-05-19 15:01:00,
2013-05-19 10:22:00,77.0,68.0,29.92,SSE,154,5.0,12.0,74,0.00,,,0.00,,2013-05-19 15:22:00,
2013-05-19 10:33:00,77.0,68.0,29.92,SSE,154,5.0,12.0,74,0.00,,,0.00,,2013-05-19 15:33:00,
2013-05-19 10:43:00,77.0,68.0,29.92,SSE,154,5.0,12.0,74,0.00,,,0.00,,2013-05-19 15:43:00,
2013-05-19 10:53:00,77.0,68.0,29.92,SSE,154,5.0,12.0,74,0.00,,,0.00,,2013-05-19 15:53:00,
2013-05-19 11:03:00,77.0,68.0,29.92,SSE,154,5.0,12.0,74,0.00,,,0.00,,2013-05-19 16:03:00,
2013-05-19 11:23:00,80.0,70.0,29.91,SSE,148,7.0,13.0,71,0.00,,,0.00,,2013-05-19 16:23:00,
2013-05-19 11:32:00,80.0,70.0,29.91,SSE,148,7.0,13.0,71,0.00,,,0.00,,2013-05-19 16:32:00,
2013-05-19 11:42:00,80.0,70.0,29.91,SSE,148,7.0,13.0,71,0.00,,,0.00,,2013-05-19 16:42:00,
2013-05-19 11:52:00,81.0,70.0,29.93,South,175,3.0,11.0,70,0.00,,,0.00,,2013-05-19 16:52:00,
2013-05-19 12:02:00,81.0,70.0,29.93,South,175,3.0,11.0,70,0.00,,,0.00,,2013-05-19 17:02:00,
2013-05-19 12:12:00,81.0,70.0,29.93,South,175,3.0,11.0,70,0.00,,,0.00,,2013-05-19 17:12:00,
2013-05-19 12:22:00,81.0,70.0,29.93,South,175,3.0,11.0,70,0.00,,,0.00,,2013-05-19 17:22:00,
2013-05-19 12:32:00,81.0,70.0,29.93,South,175,3.0,11.0,70,0.00,,,0.00,,2013-05-19 17:32:00,
2013-05-19 13:22:00,83.0,72.0,29.88,SE,145,3.0,9.0,70,0.00,,,0.00,,2013-05-19 18:22:00,
2013-05-19 13:32:00,83.0,72.0,29.88,SE,145,3.0,9.0,70,0.00,,,0.00,,2013-05-19 18:32:00,
2013-05-19 13:43:00,83.0,72.0,29.88,SE,145,3.0,9.0,70,0.00,,,0.00,,2013-05-19 18:43:00,
2013-05-19 13:53:00,83.0,72.0,29.88,SE,145,3.0,9.0,70,0.00,,,0.00,,2013-05-19 18:53:00,
2013-05-19 14:01:00,83.0,72.0,29.88,SE,145,3.0,9.0,70,0.00,,,0.00,,2013-05-19 19:01:00,
2013-05-19 14:52:00,85.0,72.0,29.83,SE,125,7.0,17.0,65,0.00,,,0.00,,2013-05-19 19:52:00,
2013-05-19 15:02:00,85.0,72.0,29.83,SE,125,7.0,17.0,65,0.00,,,0.00,,2013-05-19 20:02:00,
2013-05-19 15:11:00,85.0,72.0,29.83,SE,125,7.0,17.0,65,0.00,,,0.00,,2013-05-19 20:11:00,
2013-05-19 15:21:00,85.0,72.0,29.83,SE,125,7.0,17.0,65,0.00,,,0.00,,2013-05-19 20:21:00,
2013-05-19 15:32:00,85.0,72.0,29.83,SE,125,7.0,17.0,65,0.00,,,0.00,,2013-05-19 20:32:00,
2013-05-19 15:52:00,87.0,73.0,29.81,SE,135,6.0,13.0,64,0.00,,,0.00,,2013-05-19 20:52:00,
2013-05-19 16:02:00,87.0,73.0,29.81,SE,135,6.0,13.0,64,0.00,,,0.00,,2013-05-19 21:02:00,
2013-05-19 16:11:00,87.0,73.0,29.81,SE,135,6.0,13.0,64,0.00,,,0.00,,2013-05-19 21:11:00,
2013-05-19 16:22:00,87.0,74.0,29.80,SSE,148,6.0,14.0,65,0.00,,,0.00,,2013-05-19 21:22:00,
2013-05-19 16:32:00,87.0,74.0,29.80,SSE,148,6.0,14.0,65,0.00,,,0.00,,2013-05-19 21:32:00,
2013-05-19 16:43:00,87.0,74.0,29.80,SSE,148,6.0,14.0,65,0.00,,,0.00,,2013-05-19 21:43:00,
2013-05-19 16:53:00,85.0,72.0,29.79,South,177,4.0,16.0,65,0.00,,,0.00,,2013-05-19 21:53:00,
2013-05-19 17:02:00,85.0,72.0,29.79,South,177,4.0,16.0,65,0.00,,,0.00,,2013-05-19 22:02:00,
2013-05-19 17:12:00,85.0,72.0,29.79,South,177,4.0,16.0,65,0.00,,,0.00,,2013-05-19 22:12:00,
2013-05-19 17:23:00,85.0,72.0,29.79,South,177,4.0,16.0,65,0.00,,,0.00,,2013-05-19 22:23:00,
2013-05-19 17:33:00,85.0,72.0,29.79,South,177,4.0,16.0,65,0.00,,,0.00,,2013-05-19 22:33:00,
2013-05-19 21:22:00,80.0,69.0,29.80,SSE,163,5.0,17.0,70,0.00,,,0.00,,2013-05-20 02:22:00,
2013-05-19 21:32:00,80.0,69.0,29.80,SSE,163,5.0,17.0,70,0.00,,,0.00,,2013-05-20 02:32:00,
2013-05-19 21:42:00,80.0,69.0,29.80,SSE,163,5.0,17.0,70,0.00,,,0.00,,2013-05-20 02:42:00,
2013-05-19 21:52:00,80.0,69.0,29.80,SSE,163,5.0,17.0,70,0.00,,,0.00,,2013-05-20 02:52:00,
2013-05-19 22:01:00,80.0,69.0,29.80,SSE,163,5.0,17.0,70,0.00,,,0.00,,2013-05-20 03:01:00,
2013-05-19 22:12:00,78.0,68.0,29.81,SE,145,4.0,10.0,72,0.00,,,0.00,,2013-05-20 03:12:00,
2013-05-19 22:21:00,78.0,68.0,29.81,SE,145,4.0,10.0,72,0.00,,,0.00,,2013-05-20 03:21:00,
2013-05-19 22:33:00,78.0,68.0,29.81,SE,145,4.0,10.0,72,0.00,,,0.00,,2013-05-20 03:33:00,
2013-05-19 22:43:00,78.0,68.0,29.81,SE,145,4.0,10.0,72,0.00,,,0.00,,2013-05-20 03:43:00,
2013-05-19 22:52:00,78.0,68.0,29.81,SE,145,4.0,10.0,72,0.00,,,0.00,,2013-05-20 03:52:00,
2013-05-19 23:02:00,78.0,68.0,29.81,SE,145,4.0,10.0,72,0.00,,,0.00,,2013-05-20 04:02:00,
2013-05-19 23:13:00,77.0,68.0,29.81,ESE,119,3.0,14.0,74,0.00,,,0.00,,2013-05-20 04:13:00,
2013-05-19 23:23:00,77.0,68.0,29.81,ESE,119,3.0,14.0,74,0.00,,,0.00,,2013-05-20 04:23:00,
2013-05-19 23:33:00,77.0,68.0,29.81,ESE,119,3.0,14.0,74,0.00,,,0.00,,2013-05-20 04:33:00,
2013-05-19 23:43:00,77.0,68.0,29.81,ESE,119,3.0,14.0,74,0.00,,,0.00,,2013-05-20 04:43:00,
2013-05-19 23:52:00,77.0,68.0,29.81,ESE,119,3.0,14.0,74,0.00,,,0.00,,2013-05-20 04:52:00,